Time;durP1;ratioP1;P1;durP2;ratioP2;P2;SDS_P1;SDS_P2;PMS_P1;PMS_P2;Temp;Humidity;BMP_temperature;BMP_pressure;BME280_temperature;BME280_humidity;BME280_pressure;Samples;Min_cycle;Max_cycle;Signal;HPM_P1;HPM_P2
2023/01/05 00:02:01;;;;;;;;;24.75;22.25;;;;;;;;5204658;28;9647;-70
2023/01/05 00:04:33;;;;;;;;;26.75;26.50;;;;;;;;5221867;28;8797;-72
2023/01/05 00:07:04;;;;;;;;;17.00;16.25;;;;;;;;5188059;28;8813;-70
2023/01/05 00:09:37;;;;;;;;;9.75;9.75;;;;;;;;5204449;28;8807;-70
2023/01/05 00:23:47;;;;;;;;;15.25;15.25;;;;;;;;5205977;28;8848;-70
2023/01/05 00:26:36;;;;;;;;;18.25;15.00;;;;;;;;5205828;28;8792;-70
2023/01/05 00:29:07;;;;;;;;;7.67;7.33;;;;;;;;5204427;28;8800;-72
2023/01/05 00:31:38;;;;;;;;;21.75;18.00;;;;;;;;5204434;28;11554;-72
2023/01/05 00:34:09;;;;;;;;;19.00;17.00;;;;;;;;5204024;28;8785;-72
2023/01/05 00:36:40;;;;;;;;;25.50;25.50;;;;;;;;5204309;28;9518;-72
2023/01/05 00:39:12;;;;;;;;;18.75;18.00;;;;;;;;5203888;28;8824;-69
2023/01/05 00:41:44;;;;;;;;;29.50;27.00;;;;;;;;5205369;28;8770;-69
2023/01/05 00:44:15;;;;;;;;;28.25;25.50;;;;;;;;5205508;28;8774;-69
2023/01/05 00:47:05;;;;;;;;;17.25;14.25;;;;;;;;5204008;28;8924;-69
2023/01/05 00:49:36;;;;;;;;;13.50;13.50;;;;;;;;5205212;28;8935;-69
2023/01/05 00:52:25;;;;;;;;;19.00;17.50;;;;;;;;5204142;28;8799;-70
2023/01/05 00:54:56;;;;;;;;;12.25;11.25;;;;;;;;5205530;28;8812;-70
2023/01/05 00:57:28;;;;;;;;;12.50;12.50;;;;;;;;5203591;28;8803;-71
2023/01/05 01:00:01;;;;;;;;;10.75;10.75;;;;;;;;5205809;28;8793;-70
2023/01/05 01:02:35;;;;;;;;;11.50;11.50;;;;;;;;5204025;28;8762;-70
2023/01/05 01:05:24;;;;;;;;;14.00;13.50;;;;;;;;5206039;28;8773;-70
2023/01/05 01:07:56;;;;;;;;;1.50;1.50;;;;;;;;5187380;28;8769;-69
2023/01/05 01:10:27;;;;;;;;;10.50;10.50;;;;;;;;5187423;28;8793;-70
2023/01/05 01:12:58;;;;;;;;;15.75;15.00;;;;;;;;5204254;28;8781;-70
2023/01/05 01:15:29;;;;;;;;;8.33;8.33;;;;;;;;5208272;28;8998;-70
2023/01/05 01:18:00;;;;;;;;;9.33;9.00;;;;;;;;5209509;28;12103;-69
2023/01/05 01:20:31;;;;;;;;;6.75;6.75;;;;;;;;5209110;28;12165;-69
2023/01/05 01:23:03;;;;;;;;;12.75;12.75;;;;;;;;5208988;28;8781;-70
2023/01/05 01:25:38;;;;;;;;;15.00;15.00;;;;;;;;5207883;28;8809;-69
2023/01/05 01:28:10;;;;;;;;;13.00;12.50;;;;;;;;5175222;28;8796;-68
2023/01/05 01:30:41;;;;;;;;;25.75;24.50;;;;;;;;5209033;28;8793;-69
2023/01/05 01:33:12;;;;;;;;;20.50;18.75;;;;;;;;5207814;28;8816;-68
2023/01/05 01:36:06;;;;;;;;;16.50;16.25;;;;;;;;5210149;28;8804;-68
2023/01/05 01:38:37;;;;;;;;;10.75;10.75;;;;;;;;5224121;28;8781;-68
2023/01/05 01:41:10;;;;;;;;;12.25;12.25;;;;;;;;5207538;28;8883;-69
2023/01/05 01:43:42;;;;;;;;;10.00;10.00;;;;;;;;5209250;28;8804;-69
2023/01/05 01:46:14;;;;;;;;;12.00;12.00;;;;;;;;5207702;28;8843;-70
2023/01/05 01:49:08;;;;;;;;;14.75;14.75;;;;;;;;5208164;28;8856;-69
2023/01/05 01:51:43;;;;;;;;;11.20;10.00;;;;;;;;5223892;28;8777;-69
2023/01/05 01:54:16;;;;;;;;;19.75;16.75;;;;;;;;5224478;28;8966;-68
2023/01/05 01:56:52;;;;;;;;;20.00;18.50;;;;;;;;5208830;28;8820;-68
2023/01/05 01:59:24;;;;;;;;;17.00;17.00;;;;;;;;5207478;28;8899;-68
2023/01/05 02:02:13;;;;;;;;;13.00;12.50;;;;;;;;5207625;28;8792;-69
2023/01/05 02:04:45;;;;;;;;;12.50;12.50;;;;;;;;5190578;28;8777;-70
2023/01/05 02:07:16;;;;;;;;;7.50;7.50;;;;;;;;5223902;28;8797;-71
2023/01/05 02:09:47;;;;;;;;;18.00;12.75;;;;;;;;5190523;28;8813;-69
2023/01/05 02:12:19;;;;;;;;;14.50;13.75;;;;;;;;5191357;28;8875;-69
2023/01/05 02:14:59;;;;;;;;;21.00;17.50;;;;;;;;5208680;28;8801;-68
2023/01/05 02:17:48;;;;;;;;;17.50;17.00;;;;;;;;5207071;28;9428;-68
2023/01/05 02:20:32;;;;;;;;;22.50;22.00;;;;;;;;5190483;28;9508;-72
2023/01/05 02:23:45;;;;;;;;;24.75;22.50;;;;;;;;5206733;28;9456;-72
2023/01/05 02:26:33;;;;;;;;;25.25;23.75;;;;;;;;5189543;28;8809;-72
2023/01/05 02:29:41;;;;;;;;;17.00;17.00;;;;;;;;5207877;28;8777;-72
2023/01/05 02:32:21;;;;;;;;;26.50;24.25;;;;;;;;5206658;28;8800;-72
2023/01/05 02:35:11;;;;;;;;;24.75;24.75;;;;;;;;5206693;28;8800;-70
2023/01/05 02:37:55;;;;;;;;;24.50;23.00;;;;;;;;5207215;28;9416;-70
2023/01/05 02:40:32;;;;;;;;;29.25;26.75;;;;;;;;5206391;28;8816;-71
2023/01/05 02:43:05;;;;;;;;;56.75;48.25;;;;;;;;5206229;28;8787;-72
2023/01/05 02:45:36;;;;;;;;;35.75;25.75;;;;;;;;5157397;28;8784;-72
2023/01/05 02:48:08;;;;;;;;;74.33;49.67;;;;;;;;5206295;28;8900;-71
2023/01/05 02:50:44;;;;;;;;;88.33;66.67;;;;;;;;5222626;28;9918;-73
2023/01/05 02:53:19;;;;;;;;;77.33;58.00;;;;;;;;5206874;28;9095;-70
2023/01/05 02:55:53;;;;;;;;;59.67;47.33;;;;;;;;5222400;28;9402;-68
2023/01/05 02:58:45;;;;;;;;;70.75;54.25;;;;;;;;5207976;28;8876;-68
2023/01/05 03:01:38;;;;;;;;;64.00;53.25;;;;;;;;5207206;28;8795;-69
2023/01/05 03:04:32;;;;;;;;;60.50;51.50;;;;;;;;5220406;28;8774;-68
2023/01/05 03:07:25;;;;;;;;;60.75;48.50;;;;;;;;5206621;28;8819;-69
2023/01/05 03:16:01;;;;;;;;;63.25;48.50;;;;;;;;5222336;28;8837;-71
2023/01/05 03:19:34;;;;;;;;;44.50;36.25;;;;;;;;5205537;28;8860;-71
2023/01/05 03:36:41;;;;;;;;;35.50;30.00;;;;;;;;5206603;28;8761;-70
2023/01/05 03:39:15;;;;;;;;;32.50;30.25;;;;;;;;5206089;28;8832;-70
2023/01/05 03:42:06;;;;;;;;;20.50;20.50;;;;;;;;5206695;28;8781;-70
2023/01/05 03:44:57;;;;;;;;;21.75;21.75;;;;;;;;5205660;28;8773;-70
2023/01/05 03:47:31;;;;;;;;;23.75;21.25;;;;;;;;5172584;28;8781;-70
2023/01/05 03:50:20;;;;;;;;;11.00;11.00;;;;;;;;5206206;28;8808;-70
2023/01/05 03:52:51;;;;;;;;;13.50;13.50;;;;;;;;5188431;28;8773;-72
2023/01/05 03:55:22;;;;;;;;;17.00;16.00;;;;;;;;5192761;28;8797;-71
2023/01/05 03:57:56;;;;;;;;;27.50;24.00;;;;;;;;5179959;28;8781;-70
2023/01/05 04:00:28;;;;;;;;;15.25;15.00;;;;;;;;5195696;28;8827;-70
2023/01/05 04:03:09;;;;;;;;;16.40;16.00;;;;;;;;5191431;28;8783;-69
2023/01/05 04:05:40;;;;;;;;;15.80;15.80;;;;;;;;5188568;28;8778;-70
2023/01/05 04:08:12;;;;;;;;;10.00;10.00;;;;;;;;5172685;28;8808;-70
2023/01/05 04:10:43;;;;;;;;;18.33;18.33;;;;;;;;5188308;28;8799;-70
2023/01/05 04:13:17;;;;;;;;;24.50;23.25;;;;;;;;5172034;28;9894;-70
2023/01/05 04:15:48;;;;;;;;;15.25;14.75;;;;;;;;5205944;28;8797;-70
2023/01/05 04:18:38;;;;;;;;;18.67;18.67;;;;;;;;5204976;28;8879;-71
2023/01/05 04:21:09;;;;;;;;;24.80;18.80;;;;;;;;5188161;28;9539;-69
2023/01/05 04:23:42;;;;;;;;;13.75;13.75;;;;;;;;5172235;28;8793;-72
2023/01/05 04:26:13;;;;;;;;;14.20;14.20;;;;;;;;5204308;28;8936;-70
2023/01/05 04:28:45;;;;;;;;;12.40;11.40;;;;;;;;5204149;28;8792;-69
2023/01/05 04:31:17;;;;;;;;;13.40;12.20;;;;;;;;5187916;28;8790;-70
2023/01/05 04:33:48;;;;;;;;;17.40;16.60;;;;;;;;5204625;28;9636;-69
2023/01/05 04:36:23;;;;;;;;;19.00;19.00;;;;;;;;5204459;28;8781;-71
2023/01/05 04:38:54;;;;;;;;;21.00;19.40;;;;;;;;5205202;28;9578;-70
2023/01/05 04:41:26;;;;;;;;;17.00;15.75;;;;;;;;5205214;28;8769;-71
2023/01/05 04:43:58;;;;;;;;;24.75;24.75;;;;;;;;5171857;28;8800;-70
2023/01/05 04:46:47;;;;;;;;;31.75;26.50;;;;;;;;5204448;28;8811;-70
2023/01/05 04:49:19;;;;;;;;;28.25;27.50;;;;;;;;5187556;28;8785;-69
2023/01/05 04:51:53;;;;;;;;;28.60;28.60;;;;;;;;5188405;28;8819;-72
2023/01/05 04:54:26;;;;;;;;;29.60;26.20;;;;;;;;5203903;28;8808;-72
2023/01/05 04:56:58;;;;;;;;;25.25;24.50;;;;;;;;5203687;28;8863;-72
2023/01/05 04:59:29;;;;;;;;;28.75;26.75;;;;;;;;5171639;28;8935;-72
2023/01/05 05:02:05;;;;;;;;;27.75;24.75;;;;;;;;5204135;28;8785;-72
2023/01/05 05:04:37;;;;;;;;;31.25;28.00;;;;;;;;5187402;28;8785;-72
2023/01/05 05:07:08;;;;;;;;;50.75;45.75;;;;;;;;5205129;28;8804;-72
2023/01/05 05:09:39;;;;;;;;;14.50;12.75;;;;;;;;5205534;28;8801;-72
2023/01/05 05:12:12;;;;;;;;;39.75;33.50;;;;;;;;5205494;28;8784;-71
2023/01/05 05:14:43;;;;;;;;;38.00;37.25;;;;;;;;5171612;28;8809;-72
2023/01/05 05:17:15;;;;;;;;;33.25;31.25;;;;;;;;5204331;28;8839;-71
2023/01/05 05:28:58;;;;;;;;;27.25;25.25;;;;;;;;5203433;28;8792;-73
2023/01/05 05:31:29;;;;;;;;;35.50;35.00;;;;;;;;5187178;28;8792;-71
2023/01/05 05:34:00;;;;;;;;;26.50;25.00;;;;;;;;5199297;28;8803;-72
2023/01/05 05:40:55;;;;;;;;;18.40;17.20;;;;;;;;5184086;28;11533;-72
2023/01/05 05:47:48;;;;;;;;;26.50;24.50;;;;;;;;5184290;28;8719;-72
2023/01/05 05:50:19;;;;;;;;;18.40;17.60;;;;;;;;5184362;28;8802;-71
2023/01/05 05:57:16;;;;;;;;;15.40;14.80;;;;;;;;5204634;28;8701;-73
2023/01/05 05:59:47;;;;;;;;;12.00;12.00;;;;;;;;5187015;28;8840;-73
2023/01/05 06:02:18;;;;;;;;;18.00;18.00;;;;;;;;5208215;28;8926;-73
2023/01/05 06:09:12;;;;;;;;;19.00;18.20;;;;;;;;5206878;28;8796;-74
2023/01/05 06:12:02;;;;;;;;;21.40;21.20;;;;;;;;5208198;28;8976;-75
2023/01/05 06:18:56;;;;;;;;;38.50;35.50;;;;;;;;5208119;28;8713;-73
2023/01/05 06:21:27;;;;;;;;;46.00;40.67;;;;;;;;5206929;28;8792;-73
2023/01/05 06:23:58;;;;;;;;;37.00;37.00;;;;;;;;5190225;28;8822;-72
2023/01/05 06:26:30;;;;;;;;;39.25;33.25;;;;;;;;5207910;28;11080;-73
2023/01/05 06:29:01;;;;;;;;;35.50;31.25;;;;;;;;5206721;28;8805;-72
2023/01/05 06:31:50;;;;;;;;;48.75;45.50;;;;;;;;5207498;28;8773;-74
2023/01/05 06:34:21;;;;;;;;;61.67;48.33;;;;;;;;5190134;28;8784;-74
2023/01/05 06:37:10;;;;;;;;;57.50;47.50;;;;;;;;5207102;28;11448;-74
2023/01/05 06:39:41;;;;;;;;;51.00;48.00;;;;;;;;5207970;28;8842;-75
2023/01/05 06:42:12;;;;;;;;;103.50;79.50;;;;;;;;5206140;28;11247;-72
2023/01/05 06:44:43;;;;;;;;;48.50;42.75;;;;;;;;5206526;28;8772;-75
2023/01/05 06:47:14;;;;;;;;;56.67;51.67;;;;;;;;5207589;28;8784;-74
2023/01/05 06:49:45;;;;;;;;;43.33;43.33;;;;;;;;5206872;28;9073;-73
2023/01/05 06:52:16;;;;;;;;;39.75;34.25;;;;;;;;5207226;28;11548;-74
2023/01/05 06:54:48;;;;;;;;;34.50;31.00;;;;;;;;5206934;28;8792;-74
2023/01/05 06:57:19;;;;;;;;;47.25;40.75;;;;;;;;5206415;28;8776;-75
2023/01/05 06:59:50;;;;;;;;;57.00;48.00;;;;;;;;5222417;28;8827;-73
2023/01/05 07:02:39;;;;;;;;;54.75;47.25;;;;;;;;5207281;28;11000;-73
2023/01/05 07:05:10;;;;;;;;;69.33;52.00;;;;;;;;5190208;28;8780;-75
2023/01/05 07:07:41;;;;;;;;;60.67;53.33;;;;;;;;5205863;28;11637;-74
2023/01/05 07:10:12;;;;;;;;;54.00;48.00;;;;;;;;5189391;28;10208;-74
2023/01/05 07:12:43;;;;;;;;;51.00;45.00;;;;;;;;5206783;28;8800;-74
2023/01/05 07:15:14;;;;;;;;;47.33;44.33;;;;;;;;5207187;28;8807;-74
2023/01/05 07:17:45;;;;;;;;;91.67;69.33;;;;;;;;5189277;28;8814;-75
2023/01/05 07:20:16;;;;;;;;;75.00;60.00;;;;;;;;5189519;28;12322;-74
2023/01/05 07:22:47;;;;;;;;;55.25;48.25;;;;;;;;5188775;28;11563;-75
2023/01/05 07:25:18;;;;;;;;;55.25;49.75;;;;;;;;5206850;28;8788;-75
2023/01/05 07:27:51;;;;;;;;;35.50;34.75;;;;;;;;5206449;28;8789;-74
2023/01/05 07:30:22;;;;;;;;;55.75;47.00;;;;;;;;5207408;28;8807;-75
2023/01/05 07:33:11;;;;;;;;;53.50;49.50;;;;;;;;5205738;28;8796;-74
2023/01/05 07:35:42;;;;;;;;;46.50;45.00;;;;;;;;5189267;28;8820;-76
2023/01/05 07:38:14;;;;;;;;;45.00;44.33;;;;;;;;5188798;28;8931;-73
2023/01/05 07:40:44;;;;;;;;;37.75;36.50;;;;;;;;5188262;28;10667;-70
2023/01/05 07:43:16;;;;;;;;;34.75;31.75;;;;;;;;5207009;28;8796;-73
2023/01/05 07:45:47;;;;;;;;;27.00;25.80;;;;;;;;5206757;28;8800;-72
2023/01/05 07:48:18;;;;;;;;;82.00;64.50;;;;;;;;5204823;28;8821;-72
2023/01/05 07:51:08;;;;;;;;;22.00;19.80;;;;;;;;5205847;28;8807;-72
2023/01/05 07:53:39;;;;;;;;;21.40;20.60;;;;;;;;5206116;28;8875;-72
2023/01/05 07:56:11;;;;;;;;;21.25;21.00;;;;;;;;5205370;28;8776;-71
2023/01/05 07:58:42;;;;;;;;;25.40;24.00;;;;;;;;5205459;28;10765;-73
2023/01/05 08:01:14;;;;;;;;;21.25;21.25;;;;;;;;5188611;28;8816;-73
2023/01/05 08:03:45;;;;;;;;;30.00;28.80;;;;;;;;5188432;28;11536;-73
2023/01/05 08:06:17;;;;;;;;;20.25;19.75;;;;;;;;5205715;28;8804;-73
2023/01/05 08:08:48;;;;;;;;;18.20;17.60;;;;;;;;5205358;28;11084;-73
2023/01/05 08:11:20;;;;;;;;;18.00;16.00;;;;;;;;5205720;28;9519;-73
2023/01/05 08:14:01;;;;;;;;;18.60;18.60;;;;;;;;5204138;28;8938;-73
2023/01/05 08:16:32;;;;;;;;;33.40;32.40;;;;;;;;5205927;28;8789;-73
2023/01/05 08:19:21;;;;;;;;;19.00;19.00;;;;;;;;5205203;28;8914;-72
2023/01/05 08:21:52;;;;;;;;;16.75;15.75;;;;;;;;5204872;28;8812;-73
2023/01/05 08:24:41;;;;;;;;;16.60;15.40;;;;;;;;5204574;28;8970;-72
2023/01/05 08:27:12;;;;;;;;;15.00;15.00;;;;;;;;5205069;28;8935;-73
2023/01/05 08:30:01;;;;;;;;;30.00;26.80;;;;;;;;5206317;28;8820;-73
2023/01/05 08:32:32;;;;;;;;;15.80;15.40;;;;;;;;5171603;28;9611;-73
2023/01/05 08:35:03;;;;;;;;;13.00;12.75;;;;;;;;5205327;28;8955;-72
2023/01/05 08:37:34;;;;;;;;;19.80;19.20;;;;;;;;5204242;28;8923;-71
2023/01/05 08:40:07;;;;;;;;;23.50;21.75;;;;;;;;5205141;28;8958;-72
2023/01/05 08:42:39;;;;;;;;;19.00;17.60;;;;;;;;5204283;28;9267;-74
2023/01/05 08:45:10;;;;;;;;;31.80;29.80;;;;;;;;5187650;28;8804;-74
2023/01/05 08:47:41;;;;;;;;;34.00;33.25;;;;;;;;5188029;28;8815;-75
2023/01/05 08:50:12;;;;;;;;;39.00;35.75;;;;;;;;5205058;28;11509;-74
2023/01/05 08:52:43;;;;;;;;;32.00;32.00;;;;;;;;5204479;28;11638;-74
2023/01/05 08:55:14;;;;;;;;;24.75;24.75;;;;;;;;5187808;28;8816;-73
2023/01/05 08:57:45;;;;;;;;;26.40;24.60;;;;;;;;5220720;28;11548;-74
2023/01/05 09:00:34;;;;;;;;;25.00;25.00;;;;;;;;5218383;28;8824;-74
2023/01/05 09:03:24;;;;;;;;;24.00;22.20;;;;;;;;5190503;28;8825;-73
2023/01/05 09:05:58;;;;;;;;;21.50;19.75;;;;;;;;5188117;28;9447;-74
2023/01/05 09:08:29;;;;;;;;;25.40;21.60;;;;;;;;5204710;28;8816;-71
2023/01/05 09:11:11;;;;;;;;;24.40;24.00;;;;;;;;5203214;28;8948;-73
2023/01/05 09:13:51;;;;;;;;;14.40;13.40;;;;;;;;5203935;28;9521;-73
2023/01/05 09:16:23;;;;;;;;;16.80;16.40;;;;;;;;5188037;28;8869;-74
2023/01/05 09:18:56;;;;;;;;;27.20;26.20;;;;;;;;5203714;28;8780;-73
2023/01/05 09:21:27;;;;;;;;;69.00;57.00;;;;;;;;5204356;28;8808;-73
2023/01/05 09:23:58;;;;;;;;;30.75;30.75;;;;;;;;5204403;28;8804;-73
2023/01/05 09:26:28;;;;;;;;;10.50;10.00;;;;;;;;5187279;28;8780;-72
2023/01/05 09:28:59;;;;;;;;;15.25;14.25;;;;;;;;5203224;28;11538;-73
2023/01/05 09:31:30;;;;;;;;;46.25;41.75;;;;;;;;5204789;28;11514;-73
2023/01/05 09:34:01;;;;;;;;;26.50;25.50;;;;;;;;5204241;28;11234;-74
2023/01/05 09:36:50;;;;;;;;;21.20;14.80;;;;;;;;5207970;28;9426;-73
2023/01/05 09:39:39;;;;;;;;;31.80;31.00;;;;;;;;5194562;28;9494;-81
2023/01/05 09:42:13;;;;;;;;;24.00;23.50;;;;;;;;5224274;28;8915;-73
2023/01/05 09:44:49;;;;;;;;;22.80;22.60;;;;;;;;5190895;28;11566;-72
2023/01/05 09:47:36;;;;;;;;;15.60;14.60;;;;;;;;5207550;28;8764;-72
2023/01/05 09:50:16;;;;;;;;;18.40;13.00;;;;;;;;5207293;28;8793;-72
2023/01/05 09:52:48;;;;;;;;;22.80;21.40;;;;;;;;5207527;28;8794;-74
2023/01/05 09:55:20;;;;;;;;;22.80;22.40;;;;;;;;5235564;28;8858;-73
2023/01/05 09:57:55;;;;;;;;;18.00;18.00;;;;;;;;5208261;28;8930;-73
2023/01/05 10:00:28;;;;;;;;;18.40;17.60;;;;;;;;5208474;28;8850;-74
2023/01/05 10:03:05;;;;;;;;;20.60;19.60;;;;;;;;5207248;28;9504;-73
2023/01/05 10:05:38;;;;;;;;;19.20;18.60;;;;;;;;5236499;28;8886;-74
2023/01/05 10:08:25;;;;;;;;;17.20;17.20;;;;;;;;5190796;28;8785;-73
2023/01/05 10:29:37;;;;;;;;;27.25;27.25;;;;;;;;5188821;28;8811;-73
2023/01/05 10:32:25;;;;;;;;;15.80;15.40;;;;;;;;5186667;28;8771;-73
2023/01/05 10:43:45;;;;;;;;;43.75;40.50;;;;;;;;5187572;28;8865;-73
2023/01/05 10:46:17;;;;;;;;;51.33;44.00;;;;;;;;5186960;28;8913;-73
2023/01/05 10:48:48;;;;;;;;;46.00;43.00;;;;;;;;5202594;28;8822;-73
2023/01/05 10:51:19;;;;;;;;;47.00;40.67;;;;;;;;5202752;28;8803;-73
2023/01/05 10:53:51;;;;;;;;;52.50;46.00;;;;;;;;5186060;28;10158;-73
2023/01/05 10:56:23;;;;;;;;;57.25;49.00;;;;;;;;5186827;28;8905;-74
2023/01/05 10:59:15;;;;;;;;;72.00;59.00;;;;;;;;5185932;28;8798;-74
2023/01/05 11:01:47;;;;;;;;;62.25;52.50;;;;;;;;5202237;28;8779;-74
2023/01/05 11:04:20;;;;;;;;;82.67;64.00;;;;;;;;5169275;28;8809;-73
2023/01/05 11:06:51;;;;;;;;;69.00;51.00;;;;;;;;5187298;28;9124;-73
2023/01/05 11:09:23;;;;;;;;;91.00;67.33;;;;;;;;5186468;28;8794;-75
2023/01/05 11:11:58;;;;;;;;;60.00;50.75;;;;;;;;5185697;28;8819;-73
2023/01/05 11:14:31;;;;;;;;;84.33;68.33;;;;;;;;5186854;28;8853;-73
2023/01/05 11:17:04;;;;;;;;;74.33;59.33;;;;;;;;5202049;28;9646;-74
2023/01/05 11:19:39;;;;;;;;;78.67;63.67;;;;;;;;5169633;28;9241;-73
2023/01/05 11:22:26;;;;;;;;;85.00;62.33;;;;;;;;5186793;28;9287;-73
2023/01/05 11:25:21;;;;;;;;;81.00;63.33;;;;;;;;5202254;28;9205;-72
2023/01/05 11:28:10;;;;;;;;;78.67;64.00;;;;;;;;5184707;28;9291;-73
2023/01/05 11:31:02;;;;;;;;;81.67;64.00;;;;;;;;5185348;28;9280;-73
2023/01/05 11:33:34;;;;;;;;;78.00;61.67;;;;;;;;5201618;28;9484;-73
2023/01/05 11:36:06;;;;;;;;;61.00;48.50;;;;;;;;5185917;28;9295;-73
2023/01/05 11:38:37;;;;;;;;;39.25;35.75;;;;;;;;5186730;28;9513;-74
2023/01/05 11:41:10;;;;;;;;;66.67;55.67;;;;;;;;5204676;28;8811;-70
2023/01/05 11:43:45;;;;;;;;;69.25;56.00;;;;;;;;5186247;28;10964;-75
2023/01/05 11:46:16;;;;;;;;;75.00;58.67;;;;;;;;5186101;28;8808;-73
2023/01/05 11:48:57;;;;;;;;;67.00;55.00;;;;;;;;5184323;28;9105;-73
2023/01/05 11:51:46;;;;;;;;;68.75;57.50;;;;;;;;5171106;28;8779;-73
2023/01/05 11:54:25;;;;;;;;;62.33;49.00;;;;;;;;5168397;28;8775;-73
2023/01/05 11:57:26;;;;;;;;;73.33;57.00;;;;;;;;5184428;28;8929;-73
2023/01/05 11:59:58;;;;;;;;;71.67;60.33;;;;;;;;5183923;28;9105;-73
2023/01/05 12:02:29;;;;;;;;;53.25;47.00;;;;;;;;5185525;28;9925;-73
2023/01/05 12:05:12;;;;;;;;;69.67;54.00;;;;;;;;5200785;28;8901;-73
2023/01/05 12:07:49;;;;;;;;;75.33;62.33;;;;;;;;5200832;28;8811;-73
2023/01/05 12:10:19;;;;;;;;;56.75;48.00;;;;;;;;5186221;28;9366;-74
2023/01/05 12:13:05;;;;;;;;;66.67;55.33;;;;;;;;5184154;28;8803;-73
2023/01/05 12:15:45;;;;;;;;;54.67;48.67;;;;;;;;5168357;28;8817;-73
2023/01/05 12:18:28;;;;;;;;;67.75;52.50;;;;;;;;5200897;28;8864;-73
2023/01/05 12:21:20;;;;;;;;;54.50;45.00;;;;;;;;5184388;28;9510;-72
2023/01/05 12:23:51;;;;;;;;;38.25;35.25;;;;;;;;5167191;28;8783;-72
2023/01/05 12:26:31;;;;;;;;;40.67;36.33;;;;;;;;5184571;28;8802;-74
2023/01/05 12:29:14;;;;;;;;;47.50;43.25;;;;;;;;5200396;28;8806;-74
2023/01/05 12:31:44;;;;;;;;;49.50;44.50;;;;;;;;5183943;28;8798;-73
2023/01/05 12:34:15;;;;;;;;;66.00;54.00;;;;;;;;5185656;28;8775;-73
2023/01/05 12:36:46;;;;;;;;;59.33;51.00;;;;;;;;5185309;28;8803;-73
2023/01/05 12:39:31;;;;;;;;;80.33;61.33;;;;;;;;5184081;28;8841;-72
2023/01/05 12:42:01;;;;;;;;;51.67;48.00;;;;;;;;5167128;28;8914;-71
2023/01/05 12:44:42;;;;;;;;;64.33;53.33;;;;;;;;5184011;28;9037;-74
2023/01/05 12:47:28;;;;;;;;;48.50;45.25;;;;;;;;5166736;28;8814;-75
2023/01/05 12:50:01;;;;;;;;;63.67;54.33;;;;;;;;5185445;28;8817;-74
2023/01/05 12:52:35;;;;;;;;;39.00;34.75;;;;;;;;5184674;28;9214;-73
2023/01/05 12:55:13;;;;;;;;;38.00;35.50;;;;;;;;5199933;28;8795;-75
2023/01/05 12:57:52;;;;;;;;;39.25;32.75;;;;;;;;5184214;28;8787;-75
2023/01/05 13:00:25;;;;;;;;;63.00;49.00;;;;;;;;5183873;28;8856;-72
2023/01/05 13:03:34;;;;;;;;;61.00;50.67;;;;;;;;5200777;28;8987;-74
2023/01/05 13:06:07;;;;;;;;;56.00;46.75;;;;;;;;5198983;28;9749;-72
2023/01/05 13:09:12;;;;;;;;;78.67;60.67;;;;;;;;5184570;28;8861;-74
2023/01/05 13:11:43;;;;;;;;;42.50;39.00;;;;;;;;5199747;28;9342;-74
2023/01/05 13:14:37;;;;;;;;;39.33;36.00;;;;;;;;5183810;28;9502;-73
2023/01/05 13:17:25;;;;;;;;;15.00;15.00;;;;;;;;5189331;28;8786;-73
2023/01/05 13:20:06;;;;;;;;;11.75;10.50;;;;;;;;5166341;28;8834;-73
2023/01/05 13:22:39;;;;;;;;;12.50;12.00;;;;;;;;5183749;28;8763;-73
2023/01/05 13:25:17;;;;;;;;;12.75;12.75;;;;;;;;5183614;28;8814;-72
2023/01/05 13:27:48;;;;;;;;;31.75;30.00;;;;;;;;5199631;28;8802;-73
2023/01/05 13:30:24;;;;;;;;;16.33;16.33;;;;;;;;5183471;28;8798;-74
2023/01/05 13:32:55;;;;;;;;;26.33;24.00;;;;;;;;5183439;28;11727;-73
2023/01/05 13:35:53;;;;;;;;;12.00;9.33;;;;;;;;5199256;28;8994;-74
2023/01/05 13:38:59;;;;;;;;;40.67;38.00;;;;;;;;5195494;28;8819;-73
2023/01/05 13:41:49;;;;;;;;;10.75;10.75;;;;;;;;5121736;28;9182;-73
2023/01/05 13:44:29;;;;;;;;;29.33;25.67;;;;;;;;5195893;28;8930;-74
2023/01/05 13:47:36;;;;;;;;;14.25;14.25;;;;;;;;5183919;28;9478;-74
2023/01/05 13:50:26;;;;;;;;;15.25;14.50;;;;;;;;5183997;28;8783;-73
2023/01/05 13:53:16;;;;;;;;;8.50;7.00;;;;;;;;5199316;28;8783;-75
2023/01/05 14:04:44;;;;;;;;;8.75;8.75;;;;;;;;5204794;28;9407;-74
2023/01/05 14:07:16;;;;;;;;;19.50;19.50;;;;;;;;5186878;28;8812;-73
2023/01/05 14:09:52;;;;;;;;;9.00;9.00;;;;;;;;5186346;28;8792;-73
2023/01/05 14:12:23;;;;;;;;;20.75;19.75;;;;;;;;5203116;28;9492;-74
2023/01/05 14:14:58;;;;;;;;;21.50;20.75;;;;;;;;5186388;28;9491;-74
2023/01/05 14:17:47;;;;;;;;;4.25;4.25;;;;;;;;5186243;28;8784;-73
2023/01/05 14:20:28;;;;;;;;;10.25;10.25;;;;;;;;5170959;28;8808;-73
2023/01/05 14:22:59;;;;;;;;;11.75;11.75;;;;;;;;5207234;28;8795;-72
2023/01/05 14:25:36;;;;;;;;;18.67;18.67;;;;;;;;5190539;28;8807;-74
2023/01/05 14:28:26;;;;;;;;;10.25;9.25;;;;;;;;5190286;28;8961;-73
2023/01/05 14:31:20;;;;;;;;;13.00;13.00;;;;;;;;5190654;28;8788;-74
2023/01/05 14:33:59;;;;;;;;;13.50;13.00;;;;;;;;5190335;28;8788;-73
2023/01/05 14:36:50;;;;;;;;;12.75;12.75;;;;;;;;5174376;28;8788;-74
2023/01/05 14:39:28;;;;;;;;;8.00;7.50;;;;;;;;5207391;28;8942;-73
2023/01/05 14:42:11;;;;;;;;;10.75;10.75;;;;;;;;5207217;28;8784;-74
2023/01/05 14:44:48;;;;;;;;;18.67;18.67;;;;;;;;5190508;28;9487;-74
2023/01/05 14:47:32;;;;;;;;;19.00;14.00;;;;;;;;5206861;28;8945;-74
2023/01/05 14:50:05;;;;;;;;;16.33;16.33;;;;;;;;5190159;28;8993;-71
2023/01/05 14:52:54;;;;;;;;;22.33;22.00;;;;;;;;5190497;28;9290;-72
2023/01/05 14:55:38;;;;;;;;;18.33;15.33;;;;;;;;5178929;28;9437;-75
2023/01/05 14:58:11;;;;;;;;;3.00;3.00;;;;;;;;5192690;28;8958;-72
2023/01/05 15:01:00;;;;;;;;;18.33;18.33;;;;;;;;5173850;28;8815;-73
2023/01/05 15:03:54;;;;;;;;;37.00;29.00;;;;;;;;5207401;28;9023;-74
2023/01/05 15:06:36;;;;;;;;;5.25;4.00;;;;;;;;5173477;28;9337;-75
2023/01/05 15:09:07;;;;;;;;;15.33;13.67;;;;;;;;5207580;28;8772;-74
2023/01/05 15:11:41;;;;;;;;;11.00;11.00;;;;;;;;5207004;28;8913;-73
2023/01/05 15:14:36;;;;;;;;;11.33;11.33;;;;;;;;5205665;28;11456;-72
2023/01/05 15:17:16;;;;;;;;;11.75;11.75;;;;;;;;5173271;28;9067;-72
2023/01/05 15:20:18;;;;;;;;;6.25;6.25;;;;;;;;5206934;28;8839;-73
2023/01/05 15:23:04;;;;;;;;;8.00;8.00;;;;;;;;5206130;28;8803;-72
2023/01/05 15:25:54;;;;;;;;;6.00;6.00;;;;;;;;5206040;28;8773;-72
2023/01/05 15:28:38;;;;;;;;;1.50;1.00;;;;;;;;5206124;28;9558;-73
2023/01/05 15:31:15;;;;;;;;;0.00;0.00;;;;;;;;5222566;28;8922;-73
2023/01/05 15:33:53;;;;;;;;;1.50;1.50;;;;;;;;5205594;28;9571;-73
2023/01/05 15:36:30;;;;;;;;;10.33;10.33;;;;;;;;5189263;28;8812;-72
2023/01/05 15:39:01;;;;;;;;;4.75;4.75;;;;;;;;5172930;28;8857;-73
2023/01/05 15:41:33;;;;;;;;;10.00;10.00;;;;;;;;5206653;28;8776;-74
2023/01/05 15:44:04;;;;;;;;;10.00;10.00;;;;;;;;5206047;28;8834;-74
2023/01/05 15:46:35;;;;;;;;;0.75;0.75;;;;;;;;5205889;28;8823;-73
2023/01/05 15:49:06;;;;;;;;;11.33;11.33;;;;;;;;5206771;28;8784;-73
2023/01/05 15:51:55;;;;;;;;;1.50;1.50;;;;;;;;5207703;28;11484;-74
2023/01/05 15:54:30;;;;;;;;;6.25;5.25;;;;;;;;5205821;28;8784;-73
2023/01/05 15:57:01;;;;;;;;;9.25;7.75;;;;;;;;5206365;28;8780;-71
2023/01/05 15:59:46;;;;;;;;;6.67;6.67;;;;;;;;5206948;28;8842;-70
2023/01/05 16:15:34;;;;;;;;;13.00;12.67;;;;;;;;5205572;28;11243;-69
2023/01/05 16:22:58;;;;;;;;;6.33;5.33;;;;;;;;5190416;28;8793;-72
2023/01/05 16:29:52;;;;;;;;;6.25;6.25;;;;;;;;5205372;28;8910;-68
2023/01/05 16:32:35;;;;;;;;;4.00;3.67;;;;;;;;5206121;28;8911;-73
2023/01/05 16:35:44;;;;;;;;;5.33;4.33;;;;;;;;5219183;28;11670;-70
2023/01/05 17:11:00;;;;;;;;;4.50;4.50;;;;;;;;5206160;28;8733;-73
2023/01/05 17:17:56;;;;;;;;;4.00;4.00;;;;;;;;5205601;28;8740;-70
2023/01/05 17:20:34;;;;;;;;;6.00;5.00;;;;;;;;5204661;28;8824;-71
2023/01/05 17:26:51;;;;;;;;;3.00;3.00;;;;;;;;5187527;28;8805;-68
2023/01/05 17:29:23;;;;;;;;;6.33;6.33;;;;;;;;5198344;28;8824;-70
2023/01/05 17:40:40;;;;;;;;;4.50;4.50;;;;;;;;5186535;28;8905;-70
2023/01/05 17:51:40;;;;;;;;;9.25;7.00;;;;;;;;5204965;28;9234;-72
2023/01/05 17:54:11;;;;;;;;;9.00;9.00;;;;;;;;5220953;28;8951;-70
2023/01/05 18:08:44;;;;;;;;;1.00;1.00;;;;;;;;5188774;28;9007;-72
2023/01/05 18:11:15;;;;;;;;;13.67;13.67;;;;;;;;5188384;28;8834;-75
2023/01/05 18:13:46;;;;;;;;;0.33;0.33;;;;;;;;5188966;28;11662;-72
2023/01/05 18:20:41;;;;;;;;;21.67;17.67;;;;;;;;5187621;28;8790;-74
2023/01/05 18:23:13;;;;;;;;;21.33;20.00;;;;;;;;5186961;28;9570;-74
2023/01/05 18:25:44;;;;;;;;;15.00;15.00;;;;;;;;5203044;28;9342;-74
2023/01/05 18:28:16;;;;;;;;;1.50;1.50;;;;;;;;5187907;28;9103;-75
2023/01/05 18:30:47;;;;;;;;;3.33;3.33;;;;;;;;5170412;28;8821;-72
2023/01/05 18:33:18;;;;;;;;;12.67;12.67;;;;;;;;5188085;28;9117;-72
2023/01/05 18:35:49;;;;;;;;;3.75;3.00;;;;;;;;5186948;28;8920;-74
2023/01/05 18:38:20;;;;;;;;;11.00;8.33;;;;;;;;5186554;28;8815;-74
2023/01/05 18:40:51;;;;;;;;;10.33;10.33;;;;;;;;5186198;28;8927;-74
2023/01/05 18:43:40;;;;;;;;;13.00;13.00;;;;;;;;5187439;28;8876;-72
2023/01/05 18:46:11;;;;;;;;;0.00;0.00;;;;;;;;5186395;28;9218;-72